Time;durP1;ratioP1;P1;durP2;ratioP2;P2;SDS_P1;SDS_P2;PMS_P1;PMS_P2;Temp;Humidity;BMP_temperature;BMP_pressure;BME280_temperature;BME280_humidity;BME280_pressure;Samples;Min_cycle;Max_cycle;Signal;HPM_P1;HPM_P2
2021/04/01 00:02:54;;;;;;;9.75;4.97;;;10.30;99.90;;;;;;10373464;28;20050;-62
2021/04/01 00:07:55;;;;;;;11.48;5.82;;;10.20;99.90;;;;;;10368804;28;20064;-63
2021/04/01 00:12:57;;;;;;;8.70;4.72;;;10.10;99.90;;;;;;10371047;28;20139;-62
2021/04/01 00:17:59;;;;;;;12.75;5.05;;;10.10;99.90;;;;;;10373898;28;20045;-63
2021/04/01 00:23:00;;;;;;;12.20;4.88;;;9.90;99.90;;;;;;10370933;28;20056;-62
2021/04/01 00:28:01;;;;;;;11.15;4.80;;;9.90;99.90;;;;;;10368176;28;20049;-62
2021/04/01 00:33:03;;;;;;;14.35;4.93;;;9.80;99.90;;;;;;10372130;28;20057;-62
2021/04/01 00:38:04;;;;;;;9.18;4.65;;;9.70;99.90;;;;;;10375963;28;20053;-62
2021/04/01 00:43:05;;;;;;;7.55;4.28;;;9.70;99.90;;;;;;10373337;28;20082;-62
2021/04/01 00:48:07;;;;;;;9.27;4.60;;;9.60;99.90;;;;;;10356660;28;20103;-62
2021/04/01 00:53:08;;;;;;;6.47;3.63;;;9.60;99.90;;;;;;10371081;28;20057;-62
2021/04/01 00:58:10;;;;;;;9.10;4.45;;;9.40;99.90;;;;;;10370011;28;20050;-62
2021/04/01 01:03:11;;;;;;;10.60;4.18;;;9.30;99.90;;;;;;10370547;28;20041;-60
2021/04/01 01:08:12;;;;;;;9.55;4.10;;;9.30;99.90;;;;;;10369832;28;20068;-60
2021/04/01 01:13:13;;;;;;;9.15;4.15;;;9.20;99.90;;;;;;10369630;28;20072;-61
2021/04/01 01:18:14;;;;;;;6.68;4.82;;;9.10;99.90;;;;;;10368174;28;20705;-60
2021/04/01 01:23:17;;;;;;;12.57;4.70;;;9.00;99.90;;;;;;10352928;28;20488;-60
2021/04/01 01:28:18;;;;;;;9.85;4.80;;;8.90;99.90;;;;;;10368398;28;20123;-60
2021/04/01 01:33:22;;;;;;;14.60;8.70;;;8.80;99.90;;;;;;10373277;28;20042;-60
2021/04/01 01:38:23;;;;;;;21.02;14.30;;;8.80;99.90;;;;;;10373132;28;20077;-60
2021/04/01 01:43:25;;;;;;;15.23;9.30;;;8.70;99.90;;;;;;10371922;28;20175;-60
2021/04/01 01:48:26;;;;;;;14.65;7.45;;;8.60;99.90;;;;;;10375412;28;20049;-60
2021/04/01 01:53:28;;;;;;;12.20;4.50;;;8.50;99.90;;;;;;10374510;28;20041;-60
2021/04/01 01:58:29;;;;;;;7.28;4.15;;;8.40;99.90;;;;;;10374952;28;20056;-60
2021/04/01 02:03:31;;;;;;;7.53;4.63;;;8.30;99.90;;;;;;10346568;28;20085;-60
2021/04/01 02:08:32;;;;;;;9.82;4.38;;;8.30;99.90;;;;;;10374960;28;20053;-60
2021/04/01 02:13:33;;;;;;;7.68;3.70;;;8.20;99.90;;;;;;10376938;28;20069;-60
2021/04/01 02:18:36;;;;;;;10.32;3.97;;;8.10;99.90;;;;;;10376895;28;20132;-60
2021/04/01 02:23:38;;;;;;;7.25;3.55;;;8.10;99.90;;;;;;10378720;28;20049;-60
2021/04/01 02:28:39;;;;;;;9.32;5.03;;;8.00;99.90;;;;;;10373476;28;20053;-60
2021/04/01 02:33:40;;;;;;;8.35;3.42;;;8.00;99.90;;;;;;10377678;28;20049;-60
2021/04/01 02:38:42;;;;;;;9.32;3.67;;;7.90;99.90;;;;;;10376102;28;20045;-60
2021/04/01 02:43:45;;;;;;;11.52;3.88;;;7.90;99.90;;;;;;10381533;28;20046;-60
2021/04/01 02:48:46;;;;;;;9.52;3.63;;;7.90;99.90;;;;;;10377278;28;20045;-60
2021/04/01 02:53:47;;;;;;;7.18;4.32;;;7.80;99.90;;;;;;10378846;28;20115;-60
2021/04/01 02:58:48;;;;;;;7.97;3.90;;;7.70;99.90;;;;;;10382531;28;20107;-60
2021/04/01 03:03:52;;;;;;;6.57;3.75;;;7.70;99.90;;;;;;10361687;28;20077;-60
2021/04/01 03:08:53;;;;;;;9.75;4.13;;;7.70;99.90;;;;;;10377462;28;20850;-60
2021/04/01 03:13:55;;;;;;;12.25;3.78;;;7.60;99.90;;;;;;10375074;28;20061;-60
2021/04/01 03:18:56;;;;;;;7.68;4.30;;;7.60;99.90;;;;;;10371464;28;20053;-60
2021/04/01 03:23:57;;;;;;;7.78;4.40;;;7.60;99.90;;;;;;10370401;28;20111;-60
2021/04/01 03:28:58;;;;;;;12.65;5.22;;;7.60;99.90;;;;;;10376454;28;20051;-60
2021/04/01 03:33:59;;;;;;;10.18;5.38;;;7.50;99.90;;;;;;10374234;28;20049;-60
2021/04/01 03:39:01;;;;;;;11.23;6.80;;;7.40;99.90;;;;;;10376581;28;20128;-60
2021/04/01 03:44:07;;;;;;;16.92;5.88;;;7.40;99.90;;;;;;10377379;28;20069;-61
2021/04/01 03:49:08;;;;;;;9.80;4.80;;;7.40;99.90;;;;;;10377663;28;20041;-60
2021/04/01 03:54:09;;;;;;;7.97;5.45;;;7.40;99.90;;;;;;10376146;28;20495;-60
2021/04/01 03:59:12;;;;;;;15.65;5.82;;;7.40;99.90;;;;;;10377293;28;20103;-62
2021/04/01 04:04:37;;;;;;;9.80;5.88;;;7.30;99.90;;;;;;10376703;28;20041;-62
2021/04/01 04:14:43;;;;;;;12.75;6.10;;;7.40;99.90;;;;;;10374059;28;20050;-62
2021/04/01 04:19:44;;;;;;;18.02;6.80;;;7.40;99.90;;;;;;10372842;28;20457;-62
2021/04/01 04:24:45;;;;;;;13.05;6.00;;;7.40;99.90;;;;;;10367528;28;20053;-62
2021/04/01 04:29:46;;;;;;;13.32;6.57;;;7.50;99.90;;;;;;10374289;28;20045;-62
2021/04/01 04:34:48;;;;;;;20.73;9.20;;;7.50;99.90;;;;;;10374138;28;20128;-62
2021/04/01 04:39:49;;;;;;;14.93;7.22;;;7.50;99.90;;;;;;10374202;28;20756;-62
2021/04/01 04:44:51;;;;;;;15.90;6.72;;;7.50;99.90;;;;;;10374255;28;20045;-62
2021/04/01 04:49:52;;;;;;;12.13;7.28;;;7.50;99.90;;;;;;10372690;28;20058;-62
2021/04/01 04:54:53;;;;;;;10.57;5.72;;;7.50;99.90;;;;;;10372110;28;20550;-62
2021/04/01 05:04:58;;;;;;;10.48;5.68;;;7.40;99.90;;;;;;10373849;28;20049;-62
2021/04/01 05:10:00;;;;;;;12.88;6.38;;;7.40;99.90;;;;;;10373009;28;20083;-63
2021/04/01 05:15:01;;;;;;;12.05;7.32;;;7.40;99.90;;;;;;10373514;28;20054;-62
2021/04/01 05:20:06;;;;;;;13.25;6.10;;;7.40;99.90;;;;;;10375237;28;20045;-62
2021/04/01 05:25:10;;;;;;;20.42;6.30;;;7.50;99.90;;;;;;10371367;28;20104;-61
2021/04/01 05:30:12;;;;;;;17.48;6.55;;;7.60;99.90;;;;;;10372058;28;20060;-61
2021/04/01 05:35:15;;;;;;;12.98;6.35;;;7.60;99.90;;;;;;10373149;28;20067;-61
2021/04/01 05:40:17;;;;;;;12.52;6.57;;;7.70;99.90;;;;;;10375067;28;20459;-61
2021/04/01 05:45:25;;;;;;;17.15;7.88;;;7.70;99.90;;;;;;10368992;28;20381;-61
2021/04/01 05:50:43;;;;;;;36.30;10.90;;;7.90;99.90;;;;;;10375224;28;20111;-61
2021/04/01 06:06:18;;;;;;;20.50;10.10;;;8.10;99.90;;;;;;10378505;28;20144;-62
2021/04/01 06:11:21;;;;;;;23.52;9.85;;;8.20;99.90;;;;;;10378895;28;20053;-62
2021/04/01 06:16:23;;;;;;;20.33;10.13;;;8.30;99.90;;;;;;10382365;28;20126;-62
2021/04/01 06:21:26;;;;;;;18.10;8.68;;;8.40;99.90;;;;;;10354805;28;20053;-62
2021/04/01 06:26:32;;;;;;;15.15;7.45;;;8.40;99.90;;;;;;10140496;28;20057;-62
2021/04/01 06:31:42;;;;;;;20.58;6.43;;;8.60;99.90;;;;;;10266340;28;20129;-62
2021/04/01 06:36:51;;;;;;;10.48;6.07;;;8.70;99.90;;;;;;10373756;28;20130;-62
2021/04/01 06:42:05;;;;;;;17.98;7.05;;;8.80;99.90;;;;;;10378255;28;20099;-62
2021/04/01 06:47:12;;;;;;;13.27;6.65;;;9.00;99.90;;;;;;10379319;28;20056;-62
2021/04/01 06:52:20;;;;;;;13.68;6.07;;;9.10;99.90;;;;;;10377037;28;20064;-60
2021/04/01 07:03:25;;;;;;;12.60;5.43;;;9.60;99.90;;;;;;10367815;28;20057;-62
2021/04/01 07:08:50;;;;;;;14.45;5.78;;;10.00;99.90;;;;;;10325061;28;20042;-62
2021/04/01 07:13:56;;;;;;;12.82;6.20;;;10.20;99.90;;;;;;10326409;28;20060;-62
2021/04/01 07:30:49;;;;;;;18.02;6.75;;;10.70;99.90;;;;;;10371282;28;20049;-62
2021/04/01 07:50:56;;;;;;;11.20;5.38;;;11.70;99.90;;;;;;10378586;28;20057;-62
2021/04/01 08:01:19;;;;;;;11.77;5.88;;;12.20;98.20;;;;;;10377708;28;20156;-62
2021/04/01 08:06:21;;;;;;;14.63;6.40;;;12.40;95.80;;;;;;10375408;28;20632;-62
2021/04/01 08:11:31;;;;;;;9.65;6.10;;;12.60;95.10;;;;;;10375984;28;20053;-62
2021/04/01 08:16:38;;;;;;;12.70;6.53;;;12.80;95.20;;;;;;10374932;28;20480;-62
2021/04/01 08:21:42;;;;;;;10.85;5.78;;;12.80;94.50;;;;;;10375937;28;20065;-62
2021/04/01 08:27:38;;;;;;;11.77;6.57;;;12.90;93.80;;;;;;10286904;28;20167;-63
2021/04/01 08:38:22;;;;;;;10.65;7.30;;;13.50;91.60;;;;;;10327910;28;20502;-62
2021/04/01 08:43:57;;;;;;;15.25;8.18;;;13.60;85.80;;;;;;10374394;28;20514;-63
2021/04/01 08:49:25;;;;;;;13.27;7.22;;;14.00;83.20;;;;;;10374023;28;20460;-63
2021/04/01 08:54:29;;;;;;;11.77;6.65;;;14.70;82.50;;;;;;10374824;28;20059;-63
2021/04/01 09:00:09;;;;;;;8.73;6.28;;;15.20;81.00;;;;;;10375738;28;20073;-63
2021/04/01 09:05:10;;;;;;;14.88;6.45;;;15.50;79.80;;;;;;10326883;28;20438;-62
2021/04/01 09:10:28;;;;;;;16.17;7.22;;;15.50;80.10;;;;;;10354544;28;20041;-62
2021/04/01 09:15:46;;;;;;;13.70;7.70;;;15.60;76.80;;;;;;10375675;28;20044;-62
2021/04/01 09:20:52;;;;;;;17.98;7.75;;;15.60;75.70;;;;;;10377059;28;20041;-62
2021/04/01 09:26:07;;;;;;;13.52;8.27;;;15.80;74.70;;;;;;10377455;28;20049;-63
2021/04/01 09:31:11;;;;;;;16.17;8.95;;;15.80;75.80;;;;;;10383971;28;20057;-61
2021/04/01 09:36:20;;;;;;;14.60;8.27;;;15.80;76.40;;;;;;10382055;28;20463;-62
2021/04/01 09:41:30;;;;;;;24.85;9.80;;;15.70;76.40;;;;;;10385313;28;20526;-62
2021/04/01 09:46:32;;;;;;;17.52;9.13;;;16.40;77.10;;;;;;10381426;28;21092;-62
2021/04/01 09:51:36;;;;;;;17.00;9.40;;;16.70;76.40;;;;;;10381251;28;20203;-62
2021/04/01 09:56:37;;;;;;;18.27;9.00;;;16.80;75.30;;;;;;10383165;28;20431;-61
2021/04/01 10:01:40;;;;;;;16.00;9.77;;;17.00;74.70;;;;;;10380742;28;20073;-62
2021/04/01 10:06:49;;;;;;;13.18;9.35;;;17.40;72.00;;;;;;10381579;28;20053;-62
2021/04/01 10:11:53;;;;;;;16.45;9.05;;;17.80;71.00;;;;;;10380508;28;20045;-63
2021/04/01 10:17:02;;;;;;;19.10;10.18;;;18.50;71.50;;;;;;10379002;28;20049;-63
2021/04/01 10:22:04;;;;;;;18.88;10.52;;;19.30;68.70;;;;;;10381334;28;20053;-62
2021/04/01 10:27:17;;;;;;;16.13;10.18;;;20.90;64.50;;;;;;10382018;28;20049;-63
2021/04/01 10:32:25;;;;;;;18.95;10.63;;;22.40;60.00;;;;;;10379062;28;20045;-67
2021/04/01 10:37:26;;;;;;;21.45;12.95;;;23.30;57.30;;;;;;10381093;28;20054;-67
2021/04/01 10:42:31;;;;;;;22.58;11.02;;;23.80;53.10;;;;;;10379171;28;20047;-65
2021/04/01 10:47:52;;;;;;;24.42;11.00;;;24.00;52.30;;;;;;10382299;28;20057;-65
2021/04/01 10:52:58;;;;;;;16.30;9.98;;;24.60;51.80;;;;;;10318992;28;20037;-65
2021/04/01 10:58:10;;;;;;;17.77;10.50;;;24.40;51.60;;;;;;10357387;28;20068;-65
2021/04/01 11:03:15;;;;;;;17.35;10.23;;;25.20;49.00;;;;;;10380986;28;20101;-65
2021/04/01 11:08:18;;;;;;;18.70;10.70;;;24.60;51.70;;;;;;10381394;28;20056;-65
2021/04/01 11:13:20;;;;;;;22.73;11.98;;;25.30;50.10;;;;;;10378563;28;20595;-64
2021/04/01 11:18:24;;;;;;;24.92;12.18;;;24.90;50.10;;;;;;10380384;28;20057;-63
2021/04/01 11:23:28;;;;;;;29.15;12.10;;;25.00;47.90;;;;;;10378228;28;20397;-64
2021/04/01 11:28:37;;;;;;;23.52;12.95;;;24.60;50.30;;;;;;10379651;28;20115;-63
2021/04/01 11:33:39;;;;;;;23.48;13.90;;;23.00;51.00;;;;;;10378546;28;20424;-63
2021/04/01 11:38:49;;;;;;;27.30;13.98;;;23.80;51.70;;;;;;10374366;28;20083;-63
2021/04/01 11:43:56;;;;;;;27.20;15.27;;;25.40;49.50;;;;;;10375077;28;20062;-63
2021/04/01 11:48:59;;;;;;;31.60;14.43;;;25.20;47.00;;;;;;10378804;28;20515;-65
2021/04/01 11:54:01;;;;;;;24.73;13.63;;;27.70;43.30;;;;;;10372988;28;20049;-63
2021/04/01 11:59:16;;;;;;;27.95;11.50;;;27.90;42.50;;;;;;10379639;28;20068;-64
2021/04/01 12:04:18;;;;;;;18.65;10.80;;;28.00;43.00;;;;;;10375921;28;20057;-64
2021/04/01 12:09:20;;;;;;;22.70;11.98;;;28.40;44.10;;;;;;10378732;28;20053;-64
2021/04/01 12:14:33;;;;;;;25.35;12.77;;;27.90;41.30;;;;;;10377871;28;20103;-64
2021/04/01 12:19:35;;;;;;;18.25;9.70;;;28.70;40.50;;;;;;10375667;28;20587;-64
2021/04/01 12:24:37;;;;;;;20.52;10.07;;;28.70;39.60;;;;;;10378508;28;20061;-63
2021/04/01 12:29:47;;;;;;;15.98;8.40;;;27.70;37.40;;;;;;10372595;28;20060;-64
2021/04/01 12:34:48;;;;;;;18.88;8.48;;;28.00;37.10;;;;;;10373107;28;20103;-64
2021/04/01 12:39:51;;;;;;;14.48;6.45;;;28.20;36.80;;;;;;10378394;28;20048;-64
2021/04/01 12:44:52;;;;;;;17.08;7.57;;;28.70;35.00;;;;;;10379977;28;20110;-64
2021/04/01 12:49:59;;;;;;;13.35;6.38;;;27.90;36.60;;;;;;10376337;28;20045;-64
2021/04/01 12:55:00;;;;;;;15.98;7.07;;;27.10;35.70;;;;;;10380987;28;20100;-62
2021/04/01 13:00:02;;;;;;;14.70;5.97;;;26.80;36.40;;;;;;10376583;28;20076;-65
2021/04/01 13:05:05;;;;;;;13.82;7.20;;;27.40;37.10;;;;;;10377769;28;20058;-63
2021/04/01 13:15:25;;;;;;;15.10;5.20;;;27.40;36.50;;;;;;10324313;28;20060;-64
2021/04/01 13:20:26;;;;;;;9.60;3.67;;;27.90;38.50;;;;;;10375650;28;20716;-64
2021/04/01 13:25:28;;;;;;;8.77;4.07;;;27.70;35.40;;;;;;10375635;28;20061;-63
2021/04/01 13:30:31;;;;;;;15.63;4.47;;;27.00;35.40;;;;;;10377097;28;20052;-62
2021/04/01 13:36:18;;;;;;;10.10;3.25;;;27.00;37.00;;;;;;10376836;28;20053;-65
2021/04/01 13:41:00;;;;;;;9.68;2.15;;;27.40;36.40;;;;;;10308754;28;20058;-60
2021/04/01 13:46:02;;;;;;;7.15;2.15;;;27.00;35.00;;;;;;10371983;28;20045;-63
2021/04/01 13:51:09;;;;;;;8.48;1.30;;;25.80;34.80;;;;;;10359807;28;20064;-62
2021/04/01 13:56:38;;;;;;;3.70;1.17;;;25.70;34.60;;;;;;10301187;28;20057;-61
2021/04/01 14:12:11;;;;;;;5.93;1.98;;;25.90;34.90;;;;;;10322582;28;20150;-62
2021/04/01 14:17:14;;;;;;;5.20;1.45;;;27.40;34.10;;;;;;10379579;28;20052;-62
2021/04/01 14:22:15;;;;;;;4.82;1.35;;;28.00;33.30;;;;;;10378593;28;20099;-63
2021/04/01 14:27:41;;;;;;;5.68;1.35;;;28.40;33.80;;;;;;10376083;28;20135;-62
2021/04/01 14:32:44;;;;;;;6.47;2.00;;;28.30;31.80;;;;;;10378276;28;20037;-61
2021/04/01 14:37:46;;;;;;;5.80;1.42;;;27.10;33.00;;;;;;10377108;28;20046;-61
2021/04/01 14:42:51;;;;;;;4.95;2.15;;;28.00;32.60;;;;;;10378123;28;20575;-62
2021/04/01 14:47:52;;;;;;;6.85;2.55;;;28.10;32.90;;;;;;10376414;28;20053;-61
2021/04/01 14:52:54;;;;;;;6.47;2.05;;;28.20;33.20;;;;;;10362372;28;20052;-61
2021/04/01 14:57:55;;;;;;;8.93;2.90;;;27.10;34.40;;;;;;10380602;28;20152;-59
2021/04/01 15:02:59;;;;;;;7.65;3.20;;;25.10;36.60;;;;;;10380234;28;20064;-59
2021/04/01 15:08:03;;;;;;;7.88;3.80;;;24.80;37.80;;;;;;10379317;28;20080;-63
2021/04/01 15:13:05;;;;;;;8.27;3.13;;;25.50;37.70;;;;;;10377991;28;20518;-62
2021/04/01 15:18:07;;;;;;;12.73;3.60;;;25.70;38.20;;;;;;10379248;28;20049;-64
2021/04/01 15:23:08;;;;;;;14.82;4.22;;;25.90;38.30;;;;;;10381266;28;20053;-63
2021/04/01 15:28:10;;;;;;;12.60;3.53;;;25.30;38.40;;;;;;10376036;28;20045;-63
2021/04/01 15:33:12;;;;;;;13.07;4.20;;;25.00;38.50;;;;;;10381037;28;20092;-63
2021/04/01 15:38:13;;;;;;;12.20;3.83;;;25.30;39.40;;;;;;10379304;28;20049;-64
2021/04/01 15:43:15;;;;;;;16.20;5.10;;;25.40;38.60;;;;;;10382133;28;23326;-67
2021/04/01 15:48:17;;;;;;;16.88;5.18;;;24.90;39.80;;;;;;10383663;28;20068;-66
2021/04/01 15:53:18;;;;;;;11.82;4.57;;;24.50;40.20;;;;;;10379511;28;20115;-65
2021/04/01 15:58:19;;;;;;;17.23;5.18;;;24.80;39.80;;;;;;10380090;28;20041;-69
2021/04/01 16:03:21;;;;;;;17.23;4.63;;;24.40;41.00;;;;;;10356700;28;20045;-71
2021/04/01 16:08:22;;;;;;;15.98;4.15;;;24.40;40.60;;;;;;10378643;28;20532;-63
2021/04/01 16:13:25;;;;;;;12.98;3.97;;;24.20;41.10;;;;;;10376399;28;20067;-61
2021/04/01 16:18:26;;;;;;;16.23;4.25;;;24.10;41.90;;;;;;10371278;28;20111;-62
2021/04/01 16:23:30;;;;;;;12.48;4.53;;;23.90;41.70;;;;;;10376548;28;20140;-61
2021/04/01 16:28:31;;;;;;;16.20;5.10;;;23.60;42.60;;;;;;10376422;28;20107;-62
2021/04/01 16:33:35;;;;;;;14.88;4.47;;;23.40;43.10;;;;;;10378695;28;20132;-63
2021/04/01 16:38:38;;;;;;;15.30;5.05;;;23.20;43.30;;;;;;10376387;28;20049;-61
2021/04/01 16:43:40;;;;;;;15.13;4.85;;;23.10;43.20;;;;;;10376669;28;20042;-62
2021/04/01 16:48:41;;;;;;;16.45;4.95;;;23.00;43.90;;;;;;10376079;28;20442;-63
2021/04/01 16:54:02;;;;;;;16.70;5.15;;;22.90;44.30;;;;;;10365401;28;20442;-62
2021/04/01 16:59:06;;;;;;;27.15;6.25;;;22.90;45.10;;;;;;10312285;28;20053;-62
2021/04/01 17:04:07;;;;;;;16.58;6.45;;;22.60;45.50;;;;;;10374823;28;20049;-64
2021/04/01 17:09:09;;;;;;;20.38;6.80;;;22.40;46.10;;;;;;10377917;28;20492;-67
2021/04/01 17:14:12;;;;;;;18.98;7.97;;;22.20;46.80;;;;;;10374154;28;20479;-66
2021/04/01 17:19:13;;;;;;;16.27;7.57;;;21.90;47.20;;;;;;10377516;28;20135;-65
2021/04/01 17:24:14;;;;;;;21.10;8.82;;;21.70;47.90;;;;;;10375897;28;20083;-65
2021/04/01 17:29:16;;;;;;;21.27;8.43;;;21.50;48.70;;;;;;10376268;28;20047;-65
2021/04/01 17:34:17;;;;;;;21.10;7.95;;;21.30;49.00;;;;;;10376160;28;20076;-64
2021/04/01 17:39:19;;;;;;;24.92;8.82;;;21.10;49.40;;;;;;10375987;28;20107;-67
2021/04/01 17:44:20;;;;;;;23.30;7.07;;;21.00;49.70;;;;;;10379473;28;20562;-62
2021/04/01 17:49:21;;;;;;;26.65;7.47;;;20.80;50.20;;;;;;10384478;28;20524;-61
2021/04/01 17:54:22;;;;;;;26.20;7.55;;;20.60;50.70;;;;;;10383727;28;20057;-66
2021/04/01 17:59:32;;;;;;;22.15;8.95;;;20.40;51.20;;;;;;10378373;28;20514;-65
2021/04/01 18:25:17;;;;;;;49.15;24.85;;;19.20;59.20;;;;;;10381180;28;20077;-65
2021/04/01 18:30:30;;;;;;;49.10;26.60;;;18.90;60.20;;;;;;10381238;28;20064;-66
2021/04/01 18:35:45;;;;;;;58.50;25.77;;;18.60;61.00;;;;;;10384220;28;20088;-65
2021/04/01 18:46:08;;;;;;;49.88;25.17;;;18.20;62.10;;;;;;10379127;28;20754;-63
2021/04/01 18:51:10;;;;;;;45.40;22.38;;;18.00;62.60;;;;;;10382295;28;20053;-62
2021/04/01 18:56:18;;;;;;;46.20;21.33;;;17.80;61.60;;;;;;10341307;28;20423;-62
2021/04/01 19:06:50;;;;;;;33.65;14.88;;;17.50;61.70;;;;;;10375253;28;20049;-68
2021/04/01 19:22:40;;;;;;;27.77;14.15;;;16.70;65.00;;;;;;10295157;28;20053;-66
2021/04/01 19:27:42;;;;;;;24.08;10.70;;;16.40;66.90;;;;;;10380941;28;20048;-67
2021/04/01 19:32:44;;;;;;;18.10;8.63;;;16.10;69.20;;;;;;10380016;28;20100;-65
2021/04/01 19:37:45;;;;;;;13.27;7.65;;;15.80;71.00;;;;;;10345837;28;20053;-66
2021/04/01 19:42:47;;;;;;;15.27;8.07;;;15.50;72.70;;;;;;10378621;28;20056;-66
2021/04/01 19:47:49;;;;;;;15.02;5.93;;;15.40;74.20;;;;;;10383064;28;20046;-66
2021/04/01 19:52:50;;;;;;;12.93;6.28;;;15.10;75.60;;;;;;10375449;28;20049;-65
2021/04/01 19:57:54;;;;;;;13.82;5.70;;;14.90;77.40;;;;;;10391973;28;20404;-64
2021/04/01 20:02:56;;;;;;;15.30;4.85;;;14.60;79.40;;;;;;10375910;28;20073;-65
2021/04/01 20:07:58;;;;;;;12.32;4.40;;;14.40;80.60;;;;;;10379888;28;20679;-66
2021/04/01 20:12:59;;;;;;;15.75;4.93;;;14.30;82.30;;;;;;10383180;28;20107;-66
2021/04/01 20:18:03;;;;;;;10.73;4.30;;;14.10;83.70;;;;;;10378520;28;20055;-63
2021/04/01 20:23:05;;;;;;;15.38;4.55;;;13.90;85.10;;;;;;10378123;28;20057;-66
2021/04/01 20:28:06;;;;;;;13.50;4.00;;;13.80;86.10;;;;;;10378084;28;20103;-66
2021/04/01 20:33:08;;;;;;;8.55;3.85;;;13.60;86.70;;;;;;10375083;28;20111;-67
2021/04/01 20:38:09;;;;;;;5.03;2.60;;;13.50;88.10;;;;;;10373521;28;20067;-67
2021/04/01 20:43:11;;;;;;;7.65;2.05;;;13.30;87.60;;;;;;10375439;28;20053;-66
2021/04/01 20:48:13;;;;;;;8.40;2.10;;;13.20;84.40;;;;;;10374836;28;21076;-66
2021/04/01 20:53:17;;;;;;;5.05;1.95;;;13.20;83.80;;;;;;10376712;28;20088;-66
2021/04/01 20:58:19;;;;;;;4.50;2.08;;;13.10;83.20;;;;;;10373445;28;20111;-66
2021/04/01 21:03:21;;;;;;;6.63;2.35;;;13.00;83.40;;;;;;10372980;28;20076;-66
2021/04/01 21:08:25;;;;;;;4.20;1.38;;;12.90;84.20;;;;;;10371691;28;20084;-66
2021/04/01 21:13:27;;;;;;;7.45;1.00;;;12.70;81.30;;;;;;10361912;28;20451;-66
2021/04/01 21:18:30;;;;;;;5.28;1.27;;;12.40;76.50;;;;;;10373392;28;20053;-66
2021/04/01 21:23:32;;;;;;;4.00;1.48;;;12.30;75.00;;;;;;10380059;28;20060;-66
2021/04/01 21:28:33;;;;;;;3.58;0.90;;;12.20;74.60;;;;;;10385729;28;20634;-66
2021/04/01 21:33:41;;;;;;;3.58;0.80;;;12.00;74.20;;;;;;10361382;28;20388;-66
2021/04/01 21:38:43;;;;;;;3.00;0.93;;;11.90;74.70;;;;;;10384020;28;20065;-66
2021/04/01 21:43:44;;;;;;;4.82;1.00;;;11.80;74.80;;;;;;10388476;28;20057;-66
2021/04/01 21:48:46;;;;;;;3.70;1.10;;;11.60;74.40;;;;;;10385224;28;20435;-66
2021/04/01 21:53:47;;;;;;;2.88;1.08;;;11.50;74.80;;;;;;10381880;28;20053;-66
2021/04/01 21:58:48;;;;;;;3.95;1.13;;;11.30;75.30;;;;;;10382256;28;20092;-66
2021/04/01 22:03:50;;;;;;;3.97;1.25;;;11.10;76.20;;;;;;10346217;28;20719;-66
2021/04/01 22:08:51;;;;;;;5.00;1.20;;;10.90;77.00;;;;;;10384211;28;20164;-66
2021/04/01 22:13:53;;;;;;;7.00;0.90;;;10.70;75.50;;;;;;10384093;28;20053;-65
2021/04/01 22:18:54;;;;;;;6.25;1.52;;;10.60;73.70;;;;;;10380209;28;20065;-65
2021/04/01 22:23:56;;;;;;;5.88;1.30;;;10.40;73.40;;;;;;10379517;28;20056;-65
2021/04/01 22:28:57;;;;;;;2.25;1.33;;;10.30;74.30;;;;;;10382876;28;20041;-66
2021/04/01 22:33:59;;;;;;;2.67;0.70;;;10.00;74.60;;;;;;10380063;28;20525;-66
2021/04/01 22:39:00;;;;;;;4.88;0.80;;;9.80;75.00;;;;;;10383076;28;20061;-63
2021/04/01 22:44:02;;;;;;;2.20;0.70;;;9.50;75.80;;;;;;10377341;28;20165;-63
2021/04/01 22:49:03;;;;;;;8.23;1.23;;;9.40;76.70;;;;;;10366430;28;20077;-63
2021/04/01 22:54:05;;;;;;;1.67;0.80;;;9.20;76.90;;;;;;10379064;28;20064;-63
2021/04/01 22:59:06;;;;;;;3.78;0.90;;;9.10;78.00;;;;;;10383151;28;20108;-63
2021/04/01 23:04:07;;;;;;;2.92;1.20;;;9.10;79.10;;;;;;10378003;28;20435;-63
2021/04/01 23:09:08;;;;;;;4.50;1.08;;;9.00;80.30;;;;;;10362572;28;20049;-64
2021/04/01 23:14:10;;;;;;;3.95;1.13;;;8.90;81.40;;;;;;10345887;28;20069;-63
2021/04/01 23:19:11;;;;;;;2.67;1.40;;;8.70;81.90;;;;;;10360898;28;20049;-63
2021/04/01 23:24:12;;;;;;;5.75;1.45;;;8.60;81.50;;;;;;10374469;28;20504;-63
2021/04/01 23:29:13;;;;;;;9.40;1.88;;;8.60;82.70;;;;;;10373838;28;20072;-64
2021/04/01 23:34:14;;;;;;;6.43;1.45;;;8.50;83.20;;;;;;10370626;28;20052;-63
2021/04/01 23:39:16;;;;;;;3.55;1.65;;;8.40;84.50;;;;;;10358277;28;20064;-64
2021/04/01 23:44:17;;;;;;;5.40;1.92;;;8.30;85.90;;;;;;10372577;28;20057;-63
2021/04/01 23:49:18;;;;;;;7.78;2.70;;;8.30;87.50;;;;;;10373328;28;20084;-64
2021/04/01 23:54:20;;;;;;;10.43;2.58;;;8.30;89.30;;;;;;10380664;28;20072;-63
2021/04/01 23:59:21;;;;;;;4.88;2.47;;;8.20;90.20;;;;;;10381387;28;20073;-63
